Tiempo atmosférico en la estación meteorológica de Manresa, Barcelona (291 m.)



Fecha
DESCASC
Temp. máxima en grados centígrados (hora)
DESCASC
Temp. mínima en grados centígrados (hora)
DESCASC
Temp. media en grados centígrados
DESCASC
Racha de viento máxima en m/sg (hora)
DESCASC
Velocidad máxima media en intervalos de 10 minutos(hora)
DESCASC
Precipitaciones diarias en mm
DESCASC
Precipitaciones de 00:00 a 06:00 en mm
DESCASC
Precipitaciones de 06:00 a 12:00 en mm
DESCASC
Precipitaciones de 12:00 a 18:00 en mm
DESCASC
Precipitaciones de 18:00 a 24:00 en mm
DESCASC
25-04-2019 16.7 (16:20) 9.3 (23:59) 13 8.89 (10:50) 4.72 (02:40) 9 0.2 0.8 3 5
24-04-2019 18 (16:40) 10.1 (08:00) 14.1 11.39 (15:40) 5.28 (15:40) 0 0 0 0 0
23-04-2019 20.8 (16:30) 11.7 (08:00) 16.2 7.78 (16:40) 4.72 (18:50) 0.8 0 0.8 0 0
22-04-2019 17.5 (11:30) 12.6 (00:00) 15.1 10.83 (12:50) 6.11 (14:30) 0 0 0 0 0
21-04-2019 18.2 (16:40) 9.3 (00:00) 13.8 12.5 (11:10) 6.39 (11:10) 0.2 0 0.2 0 0
20-04-2019 19.6 (13:30) 9.4 (00:00) 14.5 11.94 (12:00) 6.11 (14:10) 10 0 0 0 10
19-04-2019 21.4 (15:20) 12.9 (00:00) 17.1 11.94 (16:20) 6.39 (15:00) 0 0 0 0 0
18-04-2019 20.4 (16:40) 8.2 (00:00) 14.3 9.72 (15:30) 4.44 (15:30) 0 0 0 0 0
17-04-2019 19.2 (17:10) 7.2 (00:00) 13.2 8.89 (17:00) 4.17 (16:00) 0 0 0 0 0
16-04-2019 19.9 (17:00) 5.9 (00:00) 12.9 8.06 (18:50) 4.44 (17:40) 0 0 0 0 0
15-04-2019 17.2 (16:50) 5.7 (00:00) 11.5 8.33 (14:50) 3.89 (15:50) 0 0 0 0 0
14-04-2019 20.6 (15:00) 3.7 (00:00) 12.2 9.72 (17:00) 5 (17:20) 0 0 0 0 0
13-04-2019 22.4 (17:00) 5.9 (00:00) 14.1 7.78 (19:20) 3.89 (18:00) 0 0 0 0 0
12-04-2019 21.4 (17:10) 7.6 (00:00) 14.5 9.17 (17:40) 5 (18:40) 0 0 0 0 0
11-04-2019 19.8 (16:30) 4.4 (00:00) 12.1 7.78 (16:20) 4.17 (15:20) 0 0 0 0 0
10-04-2019 18.4 (16:10) 2.9 (00:00) 10.6 10.28 (20:30) 5.83 (20:20) 5 0 0 0 5
09-04-2019 17.4 (15:00) 7 (00:00) 12.2 10 (16:50) 5.83 (16:50) 0 0 0 0 0
08-04-2019 19.2 (18:10) 3.3 (00:00) 11.3 8.61 (14:00) 5 (14:00) 0.2 0 0.2 0 0
07-04-2019 17.3 (15:00) 2.2 (00:00) 9.7 9.72 (15:50) 5.28 (15:40) 0.8 0 0 0.8 0
06-04-2019 -- (--) -- (--) -- -- (--) -- (--) -- -- -- 0 0
05-04-2019 -- (--) -- (--) -- -- (--) -- (--) -- 0 0 0.4 --
04-04-2019 16 (17:10) 1.5 (00:00) 8.8 8.61 (15:20) 4.72 (13:40) 0 0 0 0 0
03-04-2019 15.4 (13:10) 7.7 (00:00) 11.5 8.33 (17:00) 4.17 (17:10) 2 0 0.4 0 1.6
02-04-2019 20.5 (16:00) 5.8 (00:00) 13.2 8.33 (17:30) 4.17 (17:30) 0 0 0 0 0
01-04-2019 21.4 (16:20) 7 (00:00) 14.2 10.28 (17:50) 4.72 (17:40) 0 0 0 0 0
31-03-2019 18.9 (17:10) 2.4 (00:00) 10.6 7.78 (18:40) 3.89 (18:50) 0 0 0 0 0
30-03-2019 17.6 (14:40) 0.2 (00:00) 8.9 8.33 (14:40) 4.44 (18:10) 0 0 0 0 0
29-03-2019 18 (13:50) 2 (00:00) 10 8.33 (14:10) 4.17 (16:50) 0 0 0 0 0
28-03-2019 20 (15:40) 0.9 (00:00) 10.4 10 (16:00) 5 (16:00) 0 0 0 0 0
27-03-2019 20.2 (15:50) -0.5 (-00:0) 9.9 9.72 (17:30) 5 (16:40) 0 0 0 0 0

Gráficas

Temp. máximas Temp. mínimas Temp. medias Precipitaciones Rachas de viento máximas Velocidades máximas media en intervalos de 10 minutos

Datos horarios

Fecha y hora oficial Temperatura (ºC) Velocidad del viento (km/h) Dirección del viento Racha (km/h) Dirección de racha Precipitación (mm) Presión (hPa) Tendencia (hPa) Humedad (%)
2019-04-25 23:00:00 10.7 3 Norte 12 Oeste 0 979.4 2.4 85
2019-04-25 22:00:00 11.1 6 Oeste 14 Oeste 0 978.5 2.4 88
2019-04-25 21:00:00 11.7 7 Este 13 Este 0.2 977.5 1.1 86
2019-04-25 20:00:00 12.7 4 Sur 22 Oeste 1.6 977 0.6 81
2019-04-25 19:00:00 14.8 6 Oeste 21 Este 3.2 976.1 -0.3 73
2019-04-25 18:00:00 13.6 2 Oeste 14 Norte 0 976.4 -0.6 76
2019-04-25 17:00:00 14.5 6 Norte 16 Norte 0 976.4 -1.6 71
2019-04-25 16:00:00 16.2 5 Norte 14 Nordeste 0 976.4 -1.5 64
2019-04-25 15:00:00 14.1 6 Nordeste 17 Nordeste 0.4 977 -1 71
2019-04-25 14:00:00 11.4 6 Este 14 Nordeste 2.6 978 0.8 87
2019-04-25 13:00:00 12.9 5 Norte 15 Nordeste 0 977.9 1.5 74
2019-04-25 12:00:00 13 3 Noroeste 27 Oeste 0.2 978 2.9 68
2019-04-25 11:00:00 12.4 10 Sudoeste 32 Oeste 0.6 977.2 2.5 79
2019-04-25 10:00:00 14.2 7 Sur 21 Sudoeste 0 976.4 1.6 77
2019-04-25 09:00:00 13.5 9 Sur 29 Sur 0 975.1 0.5 83
2019-04-25 08:00:00 13.1 15 Sur 30 Sudeste 0 974.7 -0.1 84
2019-04-25 07:00:00 12.8 12 Sudeste 31 Sur 0 974.8 -0.6 86
2019-04-25 06:00:00 12.7 8 Sur 24 Sur 0 974.6 -1.1 87
2019-04-25 05:00:00 12.6 13 Sur 32 Sudeste 0 974.8 -1.5 87
2019-04-25 04:00:00 12.6 13 Sur 26 Sur 0.2 975.4 -1 88
2019-04-25 03:00:00 12.8 14 Sur 31 Sur 0 975.7 -1.1 82
2019-04-25 02:00:00 13.1 14 Sur 27 Sur 0 976.3 -0.3 75
2019-04-25 01:00:00 12.8 11 Sur 28 Sudeste 0 976.4 -0.1 75
2019-04-25 00:00:00 12.5 14 Sur 30 Sur 0 976.8 1.3 74
2019-04-24 23:00:00 12.3 13 Sur 29 Sudoeste 0 976.6 1.7 71
2019-04-24 22:00:00 12.9 15 Sur 28 Sur 0 976.5 2 63
2019-04-24 21:00:00 13.6 12 Sur 30 Sudoeste 0 975.5 1.2 56
2019-04-24 20:00:00 15.3 11 Sur 25 Sur 0 974.9 0.8 44
2019-04-24 19:00:00 16.4 13 Sur 33 Sudoeste 0 974.5 0.2 41
2019-04-24 18:00:00 16.6 14 Sur 28 Sudoeste 0 974.3 0.2 40
2019-04-24 17:00:00 17.6 10 Sudoeste 34 Sur 0 974.1 0.4 40
2019-04-24 16:00:00 17.6 16 Sudoeste 41 Oeste 0 974.3 0.4 38
2019-04-24 15:00:00 17.3 10 Sur 21 Oeste 0 974.1 0.2 37
2019-04-24 14:00:00 16.4 8 Sur 19 Oeste 0 973.7 0.4 40
2019-04-24 13:00:00 16 7 Noroeste 23 Oeste 0 973.9 1.5 41
2019-04-24 12:00:00 14.6 14 Oeste 26 Oeste 0 973.9 2.4 46
2019-04-24 11:00:00 13.6 10 Oeste 25 Oeste 0 973.3 2.8 52
2019-04-24 10:00:00 12.3 9 Oeste 21 Noroeste 0 972.4 3 56
2019-04-24 09:00:00 10.9 3 Noroeste 8 Oeste 0 971.5 2.8 65
2019-04-24 08:00:00 10.1 3 Oeste 8 Noroeste 0 970.5 2.2 76
2019-04-24 07:00:00 10.4 5 Oeste 10 Noroeste 0 969.4 1.5 70
2019-04-24 06:00:00 11.1 5 Oeste 15 Oeste 0 968.7 1.3 68
2019-04-24 05:00:00 12 8 Oeste 15 Noroeste 0 968.3 0.8 69
2019-04-24 04:00:00 12.7 8 Sur 22 Sur 0 967.9 0.8 82
2019-04-24 03:00:00 12.9 12 Sur 26 Sur 0 967.4 0.8 78
2019-04-24 02:00:00 13.7 12 Sur 24 Sur 0 967.5 0.6 73
2019-04-24 01:00:00 13.9 9 Sur 17 Sur 0 967.1 1.1 72
2019-04-24 00:00:00 13.6 8 Sur 17 Sur 0 966.6 1.5 77
2019-04-23 23:00:00 14 7 Sur 16 Sur 0 966.9 2.5 75
2019-04-23 22:00:00 14.5 6 Sur 16 Sudoeste 0 966 2.1 70
2019-04-23 21:00:00 15.3 7 Sur 26 Sudoeste 0 965.1 1.6 64
2019-04-23 20:00:00 16.6 13 Sur 27 Sur 0 964.4 0.8 64
2019-04-23 19:00:00 18.7 14 Sur 28 Sur 0 963.9 0.4 53
2019-04-23 18:00:00 19 6 Sur 19 Sudeste 0 963.5 -0.3 51
2019-04-23 17:00:00 20.1 10 Oeste 28 Sudoeste 0 963.6 -0.7 45
2019-04-23 16:00:00 19.9 12 Sur 27 Sudeste 0 963.5 -1 51
2019-04-23 15:00:00 19.9 9 Sur 24 Sudoeste 0 963.8 -0.8 53
2019-04-23 14:00:00 17.4 10 Sur 22 Sudoeste 0 964.3 0.1 66
2019-04-23 13:00:00 17.3 7 Sur 14 Sur 0 964.5 0.5 66
2019-04-23 12:00:00 14.8 7 Sur 14 Sudoeste 0 964.6 0.9 76
2019-04-23 11:00:00 14.1 4 Sudoeste 8 Sur 0 964.2 0.8 77
2019-04-23 10:00:00 13.5 4 Sur 7 Sudoeste 0 964 0.8 83
2019-04-23 09:00:00 12.4 2 Este 8 Este 0.2 963.7 0.5 86
2019-04-23 08:00:00 11.7 2 Oeste 6 Sudoeste 0.6 963.4 0 87
2019-04-23 07:00:00 12.2 2 Nordeste 5 Nordeste 0 963.2 -0.3 82
2019-04-23 06:00:00 12.4 2 Nordeste 6 Noroeste 0 963.2 -0.6 76
2019-04-23 05:00:00 12.4 3 Oeste 10 Norte 0 963.4 -1.1 77
2019-04-23 04:00:00 12.8 5 Norte 8 Norte 0 963.5 -1.6 74
2019-04-23 03:00:00 12.8 0 Calma 8 Nordeste 0 963.8 -1.6 71
2019-04-23 02:00:00 13 6 Nordeste 10 Norte 0 964.5 -1.4 72
2019-04-23 01:00:00 13.5 3 Norte 13 Nordeste 0 965.1 -0.8 68
2019-04-23 00:00:00 13.7 8 Nordeste 14 Nordeste 0 965.4 0 69
2019-04-22 23:00:00 13.6 2 Nordeste 18 Nordeste 0 965.9 0.9 67
2019-04-22 22:00:00 14 8 Nordeste 16 Nordeste 0 965.9 0.7 61
2019-04-22 21:00:00 13.9 3 Sudeste 24 Nordeste 0 965.4 0.5 62
2019-04-22 20:00:00 15.1 10 Nordeste 16 Nordeste 0 965 -0.6 55
2019-04-22 19:00:00 15.7 10 Nordeste 32 Norte 0 965.2 -0.8 56
2019-04-22 18:00:00 15.9 14 Nordeste 30 Norte 0 964.9 -1.6 54
2019-04-22 17:00:00 16.2 13 Nordeste 30 Nordeste 0 965.6 -1.4 51
2019-04-22 16:00:00 16.4 15 Nordeste 28 Nordeste 0 966 -1.4 51
2019-04-22 15:00:00 15.5 16 Nordeste 39 Nordeste 0 966.5 -1.2 57
2019-04-22 14:00:00 16.2 13 Nordeste 36 Nordeste 0 967 -1.1 55
2019-04-22 13:00:00 16.8 20 Nordeste 39 Este 0 967.4 -0.9 53
2019-04-22 12:00:00 17.1 15 Nordeste 36 Nordeste 0 967.7 -1 51
2019-04-22 11:00:00 16.7 17 Nordeste 29 Norte 0 968.1 -0.7 51
2019-04-22 10:00:00 14.3 9 Nordeste 15 Este 0 968.3 -0.4 53
2019-04-22 09:00:00 13.8 9 Nordeste 17 Nordeste 0 968.7 -0.6 57
2019-04-22 08:00:00 13.5 10 Nordeste 26 Nordeste 0 968.8 -1.3 56
2019-04-22 07:00:00 13.7 13 Nordeste 24 Nordeste 0 968.7 -1.9 52
2019-04-22 06:00:00 14 7 Nordeste 29 Nordeste 0 969.3 -2.7 53
2019-04-22 05:00:00 14.3 15 Nordeste 30 Nordeste 0 970.1 -2.8 51
2019-04-22 04:00:00 13.6 13 Nordeste 23 Nordeste 0 970.6 -3.2 53
2019-04-22 03:00:00 13.4 12 Nordeste 26 Nordeste 0 972 -2.6 53
2019-04-22 02:00:00 13 7 Nordeste 15 Nordeste 0 972.9 -2.6 57
2019-04-22 01:00:00 13.7 10 Nordeste 20 Nordeste 0 973.8 -1.7 56
2019-04-22 00:00:00 13.4 9 Nordeste 15 Nordeste 0 974.6 -0.7 58
2019-04-21 23:00:00 13.8 9 Nordeste 18 Nordeste 0 975.5 0.5 59
2019-04-21 22:00:00 13.9 9 Nordeste 24 Este 0 975.5 0 58
2019-04-21 21:00:00 14.6 9 Nordeste 25 Nordeste 0 975.3 -0.7 56
2019-04-21 20:00:00 15.5 13 Nordeste 34 Nordeste 0 975 -0.8 51
2019-04-21 19:00:00 15.7 16 Nordeste 33 Nordeste 0 975.5 -1 50
2019-04-21 18:00:00 16.2 19 Nordeste 40 Nordeste 0 976 -1.2 47
2019-04-21 17:00:00 17.7 21 Nordeste 38 Nordeste 0 975.8 -2.1 44
2019-04-21 16:00:00 17.8 20 Nordeste 38 Nordeste 0 976.5 -2.2 38
2019-04-21 15:00:00 17.1 15 Nordeste 39 Nordeste 0 977.2 -1.9 42
2019-04-21 14:00:00 16.2 17 Nordeste 44 Nordeste 0 977.9 -1.1 45
2019-04-21 13:00:00 15.4 19 Nordeste 39 Este 0 978.7 -0.3 46
2019-04-21 12:00:00 14.7 17 Nordeste 45 Nordeste 0 979.1 -0.3 56
2019-04-21 11:00:00 16.3 19 Nordeste 40 Nordeste 0.2 979 -1 50
2019-04-21 10:00:00 15 14 Nordeste 30 Nordeste 0 979 -1 51
2019-04-21 09:00:00 12.5 11 Nordeste 22 Este 0 979.4 -1 66
2019-04-21 08:00:00 11.2 8 Este 14 Nordeste 0 980 -1 74
2019-04-21 07:00:00 10.6 5 Nordeste 12 Nordeste 0 980 -1.9 78
2019-04-21 06:00:00 10 4 Nordeste 10 Nordeste 0 980.4 -2.6 81
2019-04-21 05:00:00 10.1 5 Nordeste 16 Nordeste 0 981 -2.9 81
2019-04-21 04:00:00 9.9 8 Nordeste 13 Nordeste 0 981.9 -3.1 82
2019-04-21 03:00:00 9.7 5 Nordeste 18 Norte 0 983 -3.1 83
2019-04-21 02:00:00 9.6 13 Nordeste 21 Nordeste 0 983.9 -2.5 84
2019-04-21 01:00:00 9.5 10 Nordeste 22 Norte 0 985 -2 84
2019-04-21 00:00:00 9.4 14 Norte 24 Norte 0.4 986.1 -0.4 88
2019-04-20 23:00:00 9.8 5 Nordeste 20 Nordeste 1.8 986.4 1.1 88
2019-04-20 22:00:00 10.4 8 Norte 21 Nordeste 3.4 987 2 85
2019-04-20 21:00:00 11.2 2 Este 7 Este 3.4 986.5 2 84
2019-04-20 20:00:00 12.6 5 Sudeste 20 Nordeste 1 985.3 0.3 71
2019-04-20 19:00:00 15.8 9 Nordeste 36 Nordeste 0 985 -0.4 46
2019-04-20 18:00:00 17.1 17 Nordeste 35 Nordeste 0 984.5 -1.3 37
2019-04-20 17:00:00 17.6 15 Nordeste 36 Nordeste 0 985 -1.2 37
2019-04-20 16:00:00 18.2 15 Nordeste 39 Nordeste 0 985.4 -1.5 34
2019-04-20 15:00:00 18.8 14 Nordeste 39 Nordeste 0 985.8 -0.9 34
2019-04-20 14:00:00 19 19 Nordeste 39 Nordeste 0 986.2 -0.5 34
2019-04-20 13:00:00 18.8 20 Nordeste 38 Nordeste 0 986.9 0 32
2019-04-20 12:00:00 18.5 21 Nordeste 43 Nordeste 0 986.7 -0.3 31
2019-04-20 11:00:00 17.8 15 Nordeste 34 Nordeste 0 986.7 -0.4 38
2019-04-20 10:00:00 16.4 16 Nordeste 32 Norte 0 986.9 -0.2 41
2019-04-20 09:00:00 13.1 7 Nordeste 14 Nordeste 0 987 -0.4 48
2019-04-20 08:00:00 12.1 5 Este 13 Nordeste 0 987.1 -0.6 50
2019-04-20 07:00:00 10.3 3 Nordeste 9 Este 0 987.1 -0.9 58
2019-04-20 06:00:00 10.8 2 Sur 9 Nordeste 0 987.4 -0.7 56
2019-04-20 05:00:00 12.4 6 Nordeste 11 Nordeste 0 987.7 -1 50
2019-04-20 04:00:00 12.8 5 Nordeste 13 Nordeste 0 988 -1 49
2019-04-20 03:00:00 13.3 7 Nordeste 18 Norte 0 988.1 -0.8 47
2019-04-20 02:00:00 13.6 11 Nordeste 19 Nordeste 0 988.7 -0.5 47
2019-04-20 01:00:00 13.9 10 Nordeste 19 Nordeste 0 989 0 43
2019-04-20 00:00:00 14.4 8 Nordeste 19 Nordeste 0 988.9 0.2 40
2019-04-19 23:00:00 14.8 10 Nordeste 19 Nordeste 0 989.2 1.1 42
2019-04-19 22:00:00 15.4 12 Nordeste 27 Nordeste 0 989 1.2 44
2019-04-19 21:00:00 16 14 Nordeste 33 Nordeste 0 988.7 1.5 43
2019-04-19 20:00:00 18.1 15 Nordeste 35 Este 0 988.1 1.3 36
2019-04-19 19:00:00 19.4 15 Nordeste 36 Nordeste 0 987.8 1.2 25
2019-04-19 18:00:00 20.6 19 Nordeste 40 Nordeste 0 987.2 0.4 23
2019-04-19 17:00:00 20.8 22 Nordeste 43 Nordeste 0 986.8 -0.5 25
2019-04-19 16:00:00 21.1 22 Nordeste 42 Nordeste 0 986.6 -0.7 32
2019-04-19 15:00:00 20.9 23 Nordeste 39 Nordeste 0 986.8 -0.7 29
2019-04-19 14:00:00 19.5 19 Nordeste 36 Nordeste 0 987.3 -0.2 32
2019-04-19 13:00:00 17.9 16 Nordeste 37 Nordeste 0 987.3 0.1 41
2019-04-19 12:00:00 16.4 17 Nordeste 33 Nordeste 0 987.5 0.9 50
2019-04-19 11:00:00 15.9 14 Nordeste 28 Nordeste 0 987.5 1.4 52
2019-04-19 10:00:00 15.4 12 Nordeste 30 Nordeste 0 987.2 1.9 52
2019-04-19 09:00:00 14.1 11 Nordeste 22 Este 0 986.6 1.6 54
2019-04-19 08:00:00 13.4 6 Este 13 Este 0 986.1 1.1 56
2019-04-19 07:00:00 13 6 Este 17 Nordeste 0 985.3 0.3 56
2019-04-19 06:00:00 13.4 8 Nordeste 16 Nordeste 0 985 -0.2 55
2019-04-19 05:00:00 13.5 10 Nordeste 19 Nordeste 0 985 -0.4 55
2019-04-19 04:00:00 13.9 11 Nordeste 22 Este 0 985 0 53
2019-04-19 03:00:00 13.9 13 Nordeste 27 Nordeste 0 985.2 0.4 54
2019-04-19 02:00:00 14.1 13 Nordeste 23 Nordeste 0 985.4 0.7 51
2019-04-19 01:00:00 14 10 Nordeste 22 Nordeste 0 985 1.2 50
2019-04-19 00:00:00 14.1 8 Nordeste 16 Nordeste 0 984.8 1.8 48
2019-04-18 23:00:00 13.9 4 Norte 13 Nordeste 0 984.7 2.7 51
2019-04-18 22:00:00 14.6 9 Nordeste 26 Este 0 983.8 2 48
2019-04-18 21:00:00 15.7 9 Nordeste 24 Nordeste 0 983 1.3 40
2019-04-18 20:00:00 16.4 14 Nordeste 31 Nordeste 0 982 -0.3 41
2019-04-18 19:00:00 17.7 16 Nordeste 31 Este 0 981.8 0.1 42
2019-04-18 18:00:00 18.5 10 Este 30 Este 0 981.7 -0.7 44
2019-04-18 17:00:00 19.7 10 Sudeste 26 Este 0 982.3 -0.7 35
2019-04-18 16:00:00 20.1 14 Este 35 Nordeste 0 981.7 -1.9 35
2019-04-18 15:00:00 19.1 7 Este 17 Sudeste 0 982.4 -2 42
2019-04-18 14:00:00 16.8 4 Nordeste 12 Nordeste 0 983 -1.9 54
2019-04-18 13:00:00 14.6 4 Sudoeste 8 Nordeste 0 983.6 -0.9 71
2019-04-18 12:00:00 13.2 5 Sudeste 14 Nordeste 0 984.4 0.6 74
2019-04-18 11:00:00 12.6 8 Nordeste 18 Nordeste 0 984.9 1.5 77
2019-04-18 10:00:00 11 6 Nordeste 9 Norte 0 984.5 1.4 81
2019-04-18 09:00:00 9.2 2 Sur 6 Oeste 0 983.8 0.2 86
2019-04-18 08:00:00 8.3 3 Norte 12 Nordeste 0 983.4 -0.8 89
2019-04-18 07:00:00 8.4 6 Nordeste 11 Nordeste 0 983.1 -0.9 89
2019-04-18 06:00:00 8.7 5 Nordeste 10 Nordeste 0 983.6 0.1 89
2019-04-18 05:00:00 9 0 Calma 6 Sudoeste 0 984.2 0.1 89
2019-04-18 04:00:00 9.5 4 Sudoeste 8 Nordeste 0 984 -0.4 86
2019-04-18 03:00:00 9.9 3 Norte 8 Nordeste 0 983.5 -0.7 86
2019-04-18 02:00:00 10.8 0 Calma 5 Norte 0 984.1 -0.1 83
2019-04-18 01:00:00 11.5 2 Norte 12 Sudoeste 0 984.4 0.7 84
2019-04-18 00:00:00 12 5 Sur 15 Sur 0 984.2 1.1 82
2019-04-17 23:00:00 12.5 6 Sur 23 Sur 0 984.2 1.7 79
2019-04-17 22:00:00 13.1 12 Sur 23 Sudeste 0 983.7 1.6 75
2019-04-17 21:00:00 14.2 9 Sur 21 Sur 0 983.1 1.1 69
2019-04-17 20:00:00 15.7 10 Sur 22 Sur 0 982.5 0.3 64
2019-04-17 19:00:00 17.3 10 Sur 25 Sur 0 982.1 -0.8 57
2019-04-17 18:00:00 18.7 13 Sur 31 Sudoeste 0 982 -1.5 52
2019-04-17 17:00:00 19.1 13 Sur 32 Sudoeste 0 982.2 -2 49
2019-04-17 16:00:00 18.5 15 Sur 28 Sudoeste 0 982.9 -1.8 51
2019-04-17 15:00:00 17.9 14 Sur 26 Sudoeste 0 983.5 -1.5 55
2019-04-17 14:00:00 17.9 12 Sur 28 Sur 0 984.2 -0.7 54
2019-04-17 13:00:00 17.8 14 Sur -- -- 0 984.7 -0.4 55
2019-04-17 12:00:00 16.6 9 Sur 17 Sudoeste 0 985 -0.4 58
2019-04-17 11:00:00 14.3 4 Norte 8 Norte 0 984.9 -0.5 65
2019-04-17 10:00:00 12.1 5 Norte 9 Nordeste 0 985.1 0 74
2019-04-17 09:00:00 8.5 4 Nordeste 8 Nordeste 0 985.4 0.2 87
2019-04-17 08:00:00 7.5 4 Norte 6 Norte 0 985.4 -0.3 90
2019-04-17 07:00:00 7.4 4 Nordeste 6 Nordeste 0 985.1 -0.9 89
2019-04-17 06:00:00 8.6 5 Nordeste 7 Norte 0 985.2 -1.1 87
2019-04-17 05:00:00 9.3 5 Nordeste 12 Este 0 985.7 -0.7 86
2019-04-17 04:00:00 10 6 Nordeste 10 Nordeste 0 986 -0.5 84
2019-04-17 03:00:00 10.5 4 Norte 7 Norte 0 986.3 -0.5 83
2019-04-17 02:00:00 10.8 4 Oeste 8 Este 0 986.4 -0.4 84
2019-04-17 01:00:00 10.9 4 Este 7 Este 0 986.5 0.2 84
2019-04-17 00:00:00 11.4 4 Oeste 6 Oeste 0 986.8 1.3 84
2019-04-16 23:00:00 11.8 3 Sur 13 Sur 0 986.8 1.7 83
2019-04-16 22:00:00 12.5 5 Sur 17 Sudoeste 0 986.3 1.4 78
2019-04-16 21:00:00 13.6 9 Sur -- -- 0 985.5 1 74
2019-04-16 20:00:00 15.6 12 Sur 28 Sudoeste 0 985.1 0.8 61
2019-04-16 19:00:00 16.6 14 Sur 29 Sudoeste 0 984.9 0.2 54
2019-04-16 18:00:00 18.6 14 Sur 28 Sur 0 984.5 -0.7 49
2019-04-16 17:00:00 19.5 9 Sudoeste 21 Sudoeste 0 984.3 -1.1 42
2019-04-16 16:00:00 19.8 8 Sur 23 Sudeste 0 984.7 -0.8 39
2019-04-16 15:00:00 19.2 8 Sudeste 22 Sur 0 985.2 -0.7 39
2019-04-16 14:00:00 17.6 3 Sudoeste 13 Nordeste 0 985.4 -0.3 45
2019-04-16 13:00:00 16.2 5 Nordeste 13 Nordeste 0 985.5 0.4 49
2019-04-16 12:00:00 13.8 5 Nordeste 10 Nordeste 0 985.9 1 56
2019-04-16 11:00:00 11.2 4 Nordeste 9 Norte 0 985.7 1.6 67
2019-04-16 10:00:00 9.4 5 Norte 9 Norte 0 985.1 1.6 76
2019-04-16 09:00:00 7.2 5 Nordeste 9 Norte 0 984.9 1.7 82
2019-04-16 08:00:00 6.1 5 Nordeste 8 Nordeste 0 984.1 1 90
2019-04-16 07:00:00 6.3 4 Oeste 7 Oeste 0 983.5 0.6 88
2019-04-16 06:00:00 6.9 2 Nordeste 6 Norte 0 983.2 0.2 85
2019-04-16 05:00:00 7.7 4 Norte 12 Nordeste 0 983.1 -0.4 85
2019-04-16 04:00:00 8 3 Nordeste 7 Nordeste 0 982.9 -0.5 82
2019-04-16 03:00:00 7.9 3 Norte 16 Este 0 983 0.2 76
2019-04-16 02:00:00 8.7 6 Nordeste 11 Nordeste 0 983.5 1 70
2019-04-16 01:00:00 9.3 0 Calma 4 Noroeste 0 983.4 1.3 64
2019-04-16 00:00:00 10 5 Oeste 13 Sudoeste 0 982.8 1 57
2019-04-15 23:00:00 10.7 5 Sudoeste 15 Sur 0 982.5 1.2 54
2019-04-15 22:00:00 11.8 6 Sur 24 Sur 0 982.1 0.8 50
2019-04-15 21:00:00 12.9 13 Sur 27 Sur 0 981.8 0.3 44
2019-04-15 20:00:00 14.1 10 Sur 22 Sur 0 981.3 -0.2 48
2019-04-15 19:00:00 15.5 12 Sur 25 Sudoeste 0 981.3 -0.5 35
2019-04-15 18:00:00 15.7 14 Sur 25 Sudoeste 0 981.5 -0.9 38
2019-04-15 17:00:00 16.9 13 Sur 28 Sudoeste 0 981.5 -1 41
2019-04-15 16:00:00 16.7 14 Sur 27 Sur 0 981.8 -1.5 45
2019-04-15 15:00:00 16.4 12 Sur 30 Sudoeste 0 982.4 -1.2 48
2019-04-15 14:00:00 17 9 Sur 24 Sur 0 982.5 -1.3 45
2019-04-15 13:00:00 16.2 11 Sur 25 Sudoeste 0 983.3 -0.8 46
2019-04-15 12:00:00 14.9 11 Sur 22 Sudoeste 0 983.6 -0.3 45
2019-04-15 11:00:00 12.9 4 Sur 10 Sur 0 983.8 0.3 60
2019-04-15 10:00:00 9.6 4 Nordeste 9 Norte 0 984.1 1.1 75
2019-04-15 09:00:00 7.1 4 Nordeste 7 Nordeste 0 983.9 1 82
2019-04-15 08:00:00 6.4 2 Norte 6 Norte 0 983.5 0.3 85
2019-04-15 07:00:00 5.8 2 Este 6 Nordeste 0 983 -0.3 88
2019-04-15 06:00:00 6.3 4 Nordeste 7 Nordeste 0 982.9 -0.5 83
2019-04-15 05:00:00 6.9 5 Nordeste 11 Nordeste 0 983.2 -0.4 83
2019-04-15 04:00:00 7.7 4 Nordeste 7 Nordeste 0 983.3 -0.2 80
2019-04-15 03:00:00 8.3 5 Nordeste 11 Nordeste 0 983.4 0.6 78
2019-04-15 02:00:00 9.3 5 Este 9 Este 0 983.6 1.6 82
2019-04-15 01:00:00 10.6 4 Oeste 15 Sudoeste 0 983.5 2.4 85
2019-04-15 00:00:00 11.3 6 Sudoeste 14 Sudoeste 0 982.8 2.6 83
2019-04-14 23:00:00 11.7 10 Sur 17 Sudoeste 0 982 2.6 81
2019-04-14 22:00:00 12.8 7 Sur 21 Sudoeste 0 981.1 2.2 73
2019-04-14 21:00:00 14.2 9 Sur 24 Sur 0 980.2 2 63
2019-04-14 20:00:00 15.9 11 Sur 27 Sur 0 979.4 1 57
2019-04-14 19:00:00 17.6 14 Sur 32 Sudoeste 0 978.9 0 51
2019-04-14 18:00:00 18.4 18 Sur 35 Sudoeste 0 978.2 -0.9 50
2019-04-14 17:00:00 19.7 17 Sur 35 Sudoeste 0 978.4 -0.8 40
2019-04-14 16:00:00 20.2 16 Sur 30 Sudoeste 0 978.9 -0.6 39
2019-04-14 15:00:00 20.3 12 Sur 28 Sudeste 0 979.1 -1.3 34
2019-04-14 14:00:00 19.8 13 Sur 24 Sudoeste 0 979.2 -1.6 33
2019-04-14 13:00:00 18.5 7 Sur 15 Sudoeste 0 979.5 -1.4 34
2019-04-14 12:00:00 15.4 5 Sudoeste 11 Sur 0 980.4 -0.5 44
2019-04-14 11:00:00 11.6 3 Norte 7 Norte 0 980.8 0.2 58
2019-04-14 10:00:00 6.9 3 Oeste 9 Oeste 0 980.9 0.7 71
2019-04-14 09:00:00 5 4 Norte 10 Nordeste 0 980.9 0.5 81
2019-04-14 08:00:00 3.9 3 Nordeste 6 Nordeste 0 980.6 -0.1 86
2019-04-14 07:00:00 3.9 2 Nordeste 9 Nordeste 0 980.2 -0.9 86
2019-04-14 06:00:00 4.6 5 Nordeste 8 Norte 0 980.4 -0.9 84
2019-04-14 05:00:00 4.9 3 Noroeste 7 Oeste 0 980.7 -0.8 80
2019-04-14 04:00:00 6.1 3 Nordeste 9 Oeste 0 981.1 -0.8 76
2019-04-14 03:00:00 7.1 3 Noroeste 7 Oeste 0 981.3 -0.5 73
2019-04-14 02:00:00 8.3 2 Nordeste 8 Norte 0 981.5 -0.3 73
2019-04-14 01:00:00 9.2 0 Calma 5 Noroeste 0 981.9 0.5 69
2019-04-14 00:00:00 11.3 2 Sudoeste 4 Sudoeste 0 981.8 1.1 63
2019-04-13 23:00:00 13.1 2 Noroeste 18 Sur 0 981.8 1.3 54
2019-04-13 22:00:00 14.3 9 Sur 24 Sur 0 981.4 1.2 52
2019-04-13 21:00:00 15.6 13 Sur 27 Sur 0 980.7 0.7 44
2019-04-13 20:00:00 17.9 13 Sur 28 Sur 0 980.5 0.4 35
2019-04-13 19:00:00 20.3 12 Sur 24 Oeste 0 980.2 -0.4 28
2019-04-13 18:00:00 21.8 14 Oeste 23 Oeste 0 980 -1.3 17
2019-04-13 17:00:00 22 12 Oeste 27 Oeste 0 980.1 -1.8 20
2019-04-13 16:00:00 22 11 Oeste 22 Oeste 0 980.6 -2.2 19
2019-04-13 15:00:00 20.8 8 Oeste 15 Oeste 0 981.3 -2.2 24
2019-04-13 14:00:00 19.3 4 Sur 12 Oeste 0 981.9 -1.9 19
2019-04-13 13:00:00 16.8 5 Sudoeste 11 Este 0 982.8 -0.9 39
2019-04-13 12:00:00 13.9 5 Nordeste 12 Nordeste 0 983.5 -0.1 51
2019-04-13 11:00:00 11.9 7 Nordeste 16 Nordeste 0 983.8 0.5 64
2019-04-13 10:00:00 9.6 8 Nordeste 14 Nordeste 0 983.7 1 75
2019-04-13 09:00:00 6.3 8 Nordeste 11 Nordeste 0 983.6 1.1 85
2019-04-13 08:00:00 6 6 Norte 10 Norte 0 983.3 0.8 86
2019-04-13 07:00:00 6.8 4 Nordeste 12 Nordeste 0 982.7 0 86
2019-04-13 06:00:00 7.6 6 Nordeste 9 Nordeste 0 982.5 -0.5 87
2019-04-13 05:00:00 7.2 5 Nordeste 10 Nordeste 0 982.5 -0.9 88
2019-04-13 04:00:00 7.4 4 Nordeste 11 Norte 0 982.7 -0.4 88
2019-04-13 03:00:00 7.2 5 Nordeste 7 Norte 0 983 0.3 90
2019-04-13 02:00:00 7.8 2 Nordeste 6 Nordeste 0 983.4 1.1 85
2019-04-13 01:00:00 8.5 0 Calma 9 Oeste 0 983.1 1.4 82
2019-04-13 00:00:00 9.8 2 Oeste 12 Sur 0 982.7 1.8 80
2019-04-12 23:00:00 11 8 Sur 20 Sur 0 982.3 2.4 78
2019-04-12 22:00:00 11.8 12 Sur 27 Sur 0 981.7 2.2 74
2019-04-12 21:00:00 12.6 10 Sur 29 Sur 0 980.9 1.8 70
2019-04-12 20:00:00 14.1 14 Sur 31 Sur 0 979.9 1.3 63
2019-04-12 19:00:00 16 15 Sur 31 Sur 0 979.5 0.3 53
2019-04-12 18:00:00 18.1 17 Sur 33 Sur 0 979.1 -0.5 40
2019-04-12 17:00:00 21.2 12 Oeste 22 Oeste 0 978.6 -1.2 23
2019-04-12 16:00:00 20.4 10 Oeste 24 Noroeste 0 979.2 -1.1 29
2019-04-12 15:00:00 19.4 10 Oeste 24 Oeste 0 979.6 -1.1 27
2019-04-12 14:00:00 17.9 11 Oeste 27 Sudoeste 0 979.8 -1.1 34
2019-04-12 13:00:00 16.8 9 Oeste 20 Oeste 0 980.3 -0.6 39
2019-04-12 12:00:00 14.9 6 Oeste 16 Oeste 0 980.7 -0.3 48
2019-04-12 11:00:00 11.9 3 Sur 20 Oeste 0 980.9 0.3 55
2019-04-12 10:00:00 10.4 14 Noroeste 26 Noroeste 0 980.9 0.5 63
2019-04-12 09:00:00 9 11 Oeste 19 Oeste 0 981 0.9 68
2019-04-12 08:00:00 7.7 7 Oeste 16 Noroeste 0 980.6 0.4 72
2019-04-12 07:00:00 7.9 6 Oeste 21 Oeste 0 980.4 0.2 71
2019-04-12 06:00:00 8.3 7 Oeste 27 Oeste 0 980.1 -0.3 70
2019-04-12 05:00:00 8.6 12 Oeste 26 Noroeste 0 980.2 0 68
2019-04-12 04:00:00 8.4 4 Noroeste 14 Noroeste 0 980.2 -0.1 71
2019-04-12 03:00:00 8.6 2 Norte 8 Nordeste 0 980.4 0.4 78
2019-04-12 02:00:00 9.4 2 Oeste 9 Nordeste 0 980.2 0.5 74
2019-04-12 01:00:00 10.1 3 Noroeste 10 Oeste 0 980.3 0.8 71
2019-04-12 00:00:00 11 3 Oeste 9 Oeste 0 980 1.4 65
2019-04-11 23:00:00 12.4 4 Este 12 Sur 0 979.7 1.8 61
2019-04-11 22:00:00 13.2 3 Norte 15 Sur 0 979.5 1.9 58
2019-04-11 21:00:00 14.2 6 Sur 18 Sur 0 978.6 1.4 54
2019-04-11 20:00:00 14.9 9 Sur 26 Sudeste 0 977.9 0.8 47
2019-04-11 19:00:00 16.2 10 Sur 18 Sudoeste 0 977.6 0.5 42
2019-04-11 18:00:00 17.9 4 Nordeste 11 Oeste 0 977.2 -0.4 28
2019-04-11 17:00:00 18.1 10 Oeste 28 Oeste 0 977.1 -1 29
2019-04-11 16:00:00 18.3 15 Oeste 27 Oeste 0 977.1 -1.4 29
2019-04-11 15:00:00 19.1 12 Oeste 24 Oeste 0 977.6 -1.3 34
2019-04-11 14:00:00 17.5 12 Oeste 21 Oeste 0 978.1 -0.9 38
2019-04-11 13:00:00 16.7 10 Oeste 18 Oeste 0 978.5 -0.5 39
2019-04-11 12:00:00 14 4 Nordeste 10 Nordeste 0 978.9 -0.1 54
2019-04-11 11:00:00 12.1 6 Nordeste 11 Nordeste 0 979 0.3 58
2019-04-11 10:00:00 9.9 5 Nordeste 16 Noroeste 0 979 0.7 68
2019-04-11 09:00:00 5.2 6 Nordeste 13 Oeste 0 979 0.7 89
2019-04-11 08:00:00 4.4 6 Nordeste 10 Este 0 978.7 0.4 92
2019-04-11 07:00:00 5.4 5 Nordeste 14 Oeste 0 978.3 0.1 88
2019-04-11 06:00:00 5.9 4 Norte 9 Nordeste 0 978.3 -0.1 90
2019-04-11 05:00:00 6.3 5 Nordeste 11 Nordeste 0 978.3 -0.3 92
2019-04-11 04:00:00 7.1 3 Oeste 8 Oeste 0 978.2 -0.4 92
2019-04-11 03:00:00 7.9 2 Oeste 7 Oeste 0 978.4 0.2 91
2019-04-11 02:00:00 8.1 2 Norte 7 Sudeste 0 978.6 0.1 92
2019-04-11 01:00:00 8.2 4 Nordeste 11 Noroeste 0 978.6 0.8 91
2019-04-11 00:00:00 8.5 3 Oeste 9 Oeste 0 978.2 1.3 90
2019-04-10 23:00:00 9.2 4 Norte 10 Nordeste 0 978.5 1.9 89
2019-04-10 22:00:00 9.5 4 Norte 12 Nordeste 0 977.8 1.9 86
2019-04-10 21:00:00 10.3 6 Sudoeste 37 Nordeste 4.4 976.9 2.1 81
2019-04-10 20:00:00 10.9 6 Oeste 19 Sudoeste 0.6 976.6 2 80
2019-04-10 19:00:00 13.1 11 Sur 30 Sur 0 975.9 1.2 62
2019-04-10 18:00:00 15 12 Sur 27 Sudeste 0 974.8 -0.1 48
2019-04-10 17:00:00 17.6 12 Sur 22 Sur 0 974.6 -0.2 35
2019-04-10 16:00:00 18.3 8 Nordeste 17 Nordeste 0 974.7 -0.6 31
2019-04-10 15:00:00 16.4 9 Noroeste 24 Oeste 0 974.9 -1.1 39
2019-04-10 14:00:00 17.4 9 Oeste 19 Oeste 0 974.8 -1.3 38
2019-04-10 13:00:00 15.6 4 Sudoeste 12 Noroeste 0 975.3 -0.8 41
2019-04-10 12:00:00 13.2 5 Nordeste 12 Norte 0 976 0.1 63
2019-04-10 11:00:00 11.2 4 Norte 10 Norte 0 976.1 0.4 69
2019-04-10 10:00:00 7.4 5 Nordeste 12 Nordeste 0 976.1 0.8 79
2019-04-10 09:00:00 4.3 6 Nordeste 10 Norte 0 975.9 0.7 88
2019-04-10 08:00:00 3.2 5 Nordeste 10 Nordeste 0 975.7 0.5 93
2019-04-10 07:00:00 3.3 7 Nordeste 11 Nordeste 0 975.3 0.3 93
2019-04-10 06:00:00 3.7 4 Nordeste 10 Nordeste 0 975.2 0 93
2019-04-10 05:00:00 4.4 5 Nordeste 12 Este 0 975.2 -0.3 92
2019-04-10 04:00:00 5.1 6 Nordeste 14 Nordeste 0 975 -0.5 91
2019-04-10 03:00:00 5.7 7 Nordeste 15 Nordeste 0 975.2 -0.3 91
2019-04-10 02:00:00 6.5 7 Nordeste 11 Nordeste 0 975.5 0 91
2019-04-10 01:00:00 7.2 5 Nordeste 7 Nordeste 0 975.5 0 87
2019-04-10 00:00:00 7.7 4 Nordeste 10 Este 0 975.5 -0.1 86
2019-04-09 23:00:00 8.4 5 Este 13 Este 0 975.5 0.2 82
2019-04-09 22:00:00 9.4 3 Sur 12 Sur 0 975.5 0.7 73
2019-04-09 21:00:00 9.3 7 Sur 18 Sudoeste 0 975.6 0.2 74
2019-04-09 20:00:00 10.7 4 Sur 11 Sudoeste 0 975.3 0.6 67
2019-04-09 19:00:00 10.7 3 Sudoeste 14 Este 0 974.8 1.4 68
2019-04-09 18:00:00 10.8 4 Este 29 Nordeste 0 975.4 1.8 65
2019-04-09 17:00:00 12.4 15 Nordeste 36 Norte 0 974.7 0.3 63
2019-04-09 16:00:00 14.8 14 Sur 33 Sudoeste 0 973.4 -1.4 60
2019-04-09 15:00:00 17.4 9 Sur 21 Sudoeste 0 973.6 -1.7 46
2019-04-09 14:00:00 16.9 8 Sudoeste 20 Oeste 0 974.4 -0.9 44
2019-04-09 13:00:00 16.2 6 Sudoeste 17 Oeste 0 974.8 -0.7 51
2019-04-09 12:00:00 14.5 10 Oeste 24 Oeste 0 975.3 -0.3 57
2019-04-09 11:00:00 13 7 Oeste 13 Oeste 0 975.3 -0.3 62
2019-04-09 10:00:00 11.7 8 Nordeste 13 Nordeste 0 975.5 0.2 72
2019-04-09 09:00:00 9.1 4 Norte 10 Sudoeste 0 975.6 0.1 83
2019-04-09 08:00:00 7.4 3 Este 8 Este 0 975.6 0 90
2019-04-09 07:00:00 7.4 2 Noroeste 6 Oeste 0 975.3 -0.3 88
2019-04-09 06:00:00 7.9 3 Norte 9 Este 0 975.5 -0.6 87
2019-04-09 05:00:00 8.3 4 Nordeste 8 Oeste 0 975.6 -0.7 86
2019-04-09 04:00:00 8.5 2 Nordeste 4 Oeste 0 975.6 -0.9 86
2019-04-09 03:00:00 8.7 3 Norte 6 Nordeste 0 976.1 -0.3 84
2019-04-09 02:00:00 9 2 Oeste 6 Oeste 0 976.3 -0.1 82
2019-04-09 01:00:00 10.2 0 Calma 8 Oeste 0 976.5 0.4 78
2019-04-09 00:00:00 11.7 2 Nordeste 6 Oeste 0 976.4 1 74
2019-04-08 23:00:00 13.3 3 Sudoeste 15 Sur 0 976.4 1.4 66
2019-04-08 22:00:00 14.3 9 Sur 19 Sur 0 976.1 1.3 63
2019-04-08 21:00:00 15.8 7 Sur 18 Oeste 0 975.4 0.5 55
2019-04-08 20:00:00 18 8 Oeste 23 Oeste 0 975 -0.2 45
2019-04-08 19:00:00 18.6 12 Oeste 24 Oeste 0 974.8 -0.7 43
2019-04-08 18:00:00 18.7 14 Oeste 25 Noroeste 0 974.9 -1.1 43
2019-04-08 17:00:00 18.3 12 Oeste 27 Oeste 0 975.2 -1.1 44
2019-04-08 16:00:00 18.2 14 Oeste 29 Oeste 0 975.5 -1.1 44
2019-04-08 15:00:00 17.2 16 Oeste 31 Noroeste 0 976 -1 46
2019-04-08 14:00:00 16.3 18 Oeste 31 Oeste 0 976.3 -1.1 47
2019-04-08 13:00:00 15.5 17 Oeste 27 Oeste 0 976.6 -1.3 48
2019-04-08 12:00:00 13.3 6 Oeste 13 Oeste 0 977 -1.1 62
2019-04-08 11:00:00 9.8 5 Nordeste 8 Nordeste 0 977.4 -0.6 72
2019-04-08 10:00:00 6.3 4 Nordeste 8 Norte 0 977.9 -0.3 84
2019-04-08 09:00:00 4.7 3 Oeste 9 Nordeste 0 978.1 -0.2 90
2019-04-08 08:00:00 3.8 5 Nordeste 8 Nordeste 0.2 978 -0.5 92
2019-04-08 07:00:00 3.3 0 Calma 6 Este 0 978.2 -0.6 93
2019-04-08 06:00:00 3.5 0 Calma 5 Nordeste 0 978.3 -0.6 93
2019-04-08 05:00:00 3.5 0 Calma 4 Oeste 0 978.5 -0.7 93
2019-04-08 04:00:00 3.9 4 Oeste 8 Oeste 0 978.8 -0.5 92
2019-04-08 03:00:00 4.6 3 Nordeste 6 Nordeste 0 978.9 -0.5 92
2019-04-08 02:00:00 4.7 6 Nordeste 9 Norte 0 979.2 -0.1 92
2019-04-08 01:00:00 5.4 3 Nordeste 9 Nordeste 0 979.3 0.5 90
2019-04-08 00:00:00 6.4 0 Calma 7 Noroeste 0 979.4 1.5 90
2019-04-07 23:00:00 7.1 4 Sudoeste 8 Sudoeste 0 979.3 1.7 88
2019-04-07 22:00:00 7.9 2 Sudeste 12 Este 0 978.8 2.3 84
2019-04-07 21:00:00 8.8 5 Nordeste 21 Oeste 0 977.9 2.4 81
2019-04-07 20:00:00 9.5 6 Oeste 15 Sur 0 977.6 2.6 76
2019-04-07 19:00:00 10.2 9 Sur 24 Sur 0 976.5 2.6 73
2019-04-07 18:00:00 10.3 12 Sur 26 Sudoeste 0 975.5 2.7 73
2019-04-07 17:00:00 10.3 10 Sur 21 Este 0.4 975 2.4 76
2019-04-07 16:00:00 11.5 12 Este 35 Norte 0.4 973.9 1.5 65
2019-04-07 15:00:00 17.2 9 Sudoeste 17 Sudoeste 0 972.8 0.6 36
2019-04-07 14:00:00 15.7 5 Sur 16 Oeste 0 972.6 0.8 40
2019-04-07 13:00:00 13.7 6 Oeste 17 Oeste 0 972.4 1.2 53
2019-04-07 12:00:00 11.7 7 Norte 19 Oeste 0 972.2 1.5 60
2019-04-07 11:00:00 9.6 8 Oeste 14 Oeste 0 971.8 1.9 69
2019-04-07 10:00:00 6.9 8 Nordeste 13 Este 0 971.2 1.9 77
2019-04-07 09:00:00 3.3 9 Nordeste 14 Nordeste 0 970.7 2 87
2019-04-07 08:00:00 2.3 5 Nordeste 12 Nordeste 0 969.9 1.3 91
2019-04-07 07:00:00 2.7 9 Nordeste 16 Nordeste 0 969.3 0.6 89
2019-04-07 06:00:00 3 6 Nordeste 11 Nordeste 0 968.7 -0.3 89
2019-04-07 05:00:00 3.8 6 Nordeste 12 Este 0 968.6 -0.8 87
2019-04-07 04:00:00 5 0 Calma 8 Oeste 0 968.7 -0.9 83
2019-04-07 03:00:00 6.3 4 Oeste 7 Oeste 0 969 -0.5 78
2019-04-07 02:00:00 7.1 4 Nordeste 13 Nordeste 0 969.4 0.1 73
2019-04-07 01:00:00 7.8 6 Nordeste 13 Nordeste 0 969.6 0.4 72
2019-04-07 00:00:00 8.2 4 Noroeste 11 Noroeste 0 969.5 0.7 69
2019-04-06 23:00:00 8.3 5 Sudoeste 9 Sudoeste 0 969.3 1.1 69
2019-04-06 22:00:00 9.5 3 Oeste 14 Sur 0 969.2 1.5 64
2019-04-06 21:00:00 10.7 6 Sur 16 Sur 0 968.8 1.5 59
2019-04-06 20:00:00 12.4 8 Sur 28 Sur 0 968.2 0.9 52
2019-04-06 19:00:00 12.6 14 Sudoeste 30 Sudoeste 0 967.7 0.1 49
2019-04-06 18:00:00 14.4 14 Oeste 31 Oeste 0 967.3 -0.3 37
2019-04-06 17:00:00 14.8 17 Oeste 39 Oeste 0 967.3 -0.1 40
2019-04-06 16:00:00 14.3 10 Noroeste 31 Oeste 0 967.6 0.2 47
2019-04-06 15:00:00 13.1 11 Sudoeste 36 Oeste 0 967.6 -0.2 47
2019-04-06 14:00:00 11.8 21 Oeste 35 Oeste 0 967.4 -0.2 49
2019-04-06 13:00:00 11.2 19 Oeste 35 Oeste 0 967.4 -- 58
2019-04-06 12:00:00 9.6 9 Noroeste 19 Oeste 0 967.8 -- 66
2019-04-06 11:00:00 8.8 9 Oeste -- -- -- 967.6 -- 69
2019-04-06 10:00:00 -- -- -- -- -- -- -- -- --
2019-04-06 09:00:00 -- -- -- -- -- -- -- -- --
2019-04-06 08:00:00 -- -- -- -- -- -- -- -- --
2019-04-06 07:00:00 -- -- -- -- -- -- -- -- --
2019-04-06 06:00:00 -- -- -- -- -- -- -- -- --
2019-04-06 05:00:00 -- -- -- -- -- -- -- -- --
2019-04-06 04:00:00 -- -- -- -- -- -- -- -- --
2019-04-06 03:00:00 -- -- -- -- -- -- -- -- --
2019-04-06 02:00:00 -- -- -- -- -- -- -- -- --
2019-04-06 01:00:00 -- -- -- -- -- -- -- -- --
2019-04-06 00:00:00 -- -- -- -- -- -- -- -- --
2019-04-05 23:00:00 9.7 7 Sudoeste 21 Sur 6.4 965.6 0.3 91
2019-04-05 22:00:00 11.5 6 Sudeste 15 Sudoeste 0 964.9 -0.6 73
2019-04-05 21:00:00 12.2 7 Sudeste 19 Sur 0 965 -0.5 66
2019-04-05 20:00:00 12.8 11 Sur 27 Sur 0 965.3 -0.2 64
2019-04-05 19:00:00 13.9 16 Sur 30 Sur 0 965.5 -0.5 54
2019-04-05 18:00:00 15.5 10 Sur 23 Sur 0 965.5 -1.5 47
2019-04-05 17:00:00 13.8 7 Noroeste 18 Sudeste 0 965.5 -2.1 62
2019-04-05 16:00:00 15.3 10 Sudoeste 19 Sur 0 966 -2.4 54
2019-04-05 15:00:00 13 5 Norte 10 Nordeste 0 967 -1.9 64
2019-04-05 14:00:00 11 6 Nordeste 12 Nordeste 0.2 967.6 -1.3 70
2019-04-05 13:00:00 8 5 Nordeste 10 Nordeste 0.2 968.4 -0.7 72
2019-04-05 12:00:00 7.5 6 Oeste 10 Oeste 0 968.9 -0.5 58
2019-04-05 11:00:00 5.5 4 Sudoeste 6 Oeste 0 968.9 -0.4 66
2019-04-05 10:00:00 3.4 4 Oeste 7 Oeste 0 969.1 0.1 72
2019-04-05 09:00:00 1.4 0 Calma 9 Sudoeste 0 969.4 0.1 77
2019-04-05 08:00:00 1 3 Nordeste 7 Nordeste 0 969.3 -0.4 82
2019-04-05 07:00:00 0.5 3 Nordeste 8 Nordeste 0 969 -0.5 80
2019-04-05 06:00:00 0.7 6 Nordeste 9 Nordeste 0 969.3 -0.3 85
2019-04-05 05:00:00 1.2 2 Norte 9 Norte 0 969.7 0.1 83
2019-04-05 04:00:00 1.9 4 Nordeste 8 Nordeste 0 969.5 -0.4 81
2019-04-05 03:00:00 2.6 3 Nordeste 9 Nordeste 0 969.6 -0.5 79
2019-04-05 02:00:00 3.5 4 Norte 11 Norte 0 969.6 -0.1 78
2019-04-05 01:00:00 4.5 2 Oeste 9 Norte 0 969.9 0.5 63
2019-04-05 00:00:00 5.4 3 Sudoeste 8 Oeste 0 970.1 1.3 57
2019-04-04 23:00:00 7.8 2 Este 12 Sur 0 969.7 1.3 65
2019-04-04 22:00:00 8.9 8 Sur 22 Sur 0 969.4 1.4 60
2019-04-04 21:00:00 10.4 9 Sur 19 Sudoeste 0 968.8 0.8 53
2019-04-04 20:00:00 13.4 7 Sudoeste 22 Oeste 0 968.4 0.6 39
2019-04-04 19:00:00 14.7 12 Oeste 28 Oeste 0 968 0.1 23
2019-04-04 18:00:00 15.3 12 Oeste 30 Oeste 0 968 -0.3 25
2019-04-04 17:00:00 15.8 9 Oeste 27 Oeste 0 967.8 -0.7 22
2019-04-04 16:00:00 15.5 13 Oeste 31 Sudoeste 0 967.9 -0.9 21
2019-04-04 15:00:00 14.7 9 Sudoeste 24 Oeste 0 968.3 -0.9 24
2019-04-04 14:00:00 13.1 14 Oeste 27 Oeste 0 968.5 -0.7 33
2019-04-04 13:00:00 12.1 12 Oeste 23 Oeste 0 968.8 -0.1 41
2019-04-04 12:00:00 9.4 6 Nordeste 17 Nordeste 0 969.2 0.6 48
2019-04-04 11:00:00 7.3 9 Nordeste 15 Norte 0 969.2 1.1 54
2019-04-04 10:00:00 5.7 9 Nordeste 15 Noroeste 0 968.9 1.2 58
2019-04-04 09:00:00 2.8 6 Norte 12 Norte 0 968.6 1 69
2019-04-04 08:00:00 1.7 4 Norte 12 Noroeste 0 968.1 0.6 75
2019-04-04 07:00:00 2.3 5 Oeste 14 Oeste 0 967.7 0.1 71
2019-04-04 06:00:00 3 4 Oeste 18 Oeste 0 967.6 -0.2 67
2019-04-04 05:00:00 4.3 4 Noroeste 14 Oeste 0 967.5 -0.4 61
2019-04-04 04:00:00 4.9 3 Sudoeste 19 Oeste 0 967.6 -0.7 61
2019-04-04 03:00:00 5.9 2 Sudeste 30 Sudoeste 0 967.8 -0.4 60
2019-04-04 02:00:00 6.2 13 Oeste 29 Oeste 0 967.9 -0.5 59
2019-04-04 01:00:00 6.8 4 Sudeste 9 Sudeste 0 968.3 0.2 68
2019-04-04 00:00:00 7.7 4 Oeste 16 Oeste 0 968.2 0 68
2019-04-03 23:00:00 8.5 8 Oeste 19 Oeste 0 968.4 0.8 66
2019-04-03 22:00:00 8.9 4 Sudoeste 10 Oeste 0 968.1 0.1 66
2019-04-03 21:00:00 9.1 5 Oeste 13 Sur 0.2 968.2 -0.2 77
2019-04-03 20:00:00 9.5 3 Sudeste 13 Oeste 0.4 967.6 -0.8 76
2019-04-03 19:00:00 10.3 5 Sur 13 Sur 1 968 -0.6 77
2019-04-03 18:00:00 11.5 6 Sudoeste 29 Oeste 0 968.4 -1 64
2019-04-03 17:00:00 13.2 13 Oeste 30 Oeste 0 968.4 -1.6 49
2019-04-03 16:00:00 14.7 10 Oeste 20 Oeste 0 968.6 -2.1 47
2019-04-03 15:00:00 14.1 12 Oeste 23 Oeste 0 969.4 -2.2 54
2019-04-03 14:00:00 14.5 14 Oeste 25 Oeste 0 970 -2.2 57
2019-04-03 13:00:00 15 8 Oeste 17 Sudoeste 0 970.7 -1.7 62
2019-04-03 12:00:00 14.3 7 Sudoeste 15 Sudoeste 0 971.6 -1.4 71
2019-04-03 11:00:00 13.2 8 Sur 14 Sur 0 972.2 -1.1 79
2019-04-03 10:00:00 12.7 6 Sur 14 Sudoeste 0 972.4 -1.5 82
2019-04-03 09:00:00 11.3 6 Sur 10 Sudoeste 0 973 -1.3 89
2019-04-03 08:00:00 10.7 5 Oeste 9 Sudoeste 0.4 973.3 -1.8 90
2019-04-03 07:00:00 11 4 Sudoeste 9 Sudoeste 0 973.9 -2.1 86
2019-04-03 06:00:00 11.1 3 Oeste 5 Oeste 0 974.3 -2.7 84
2019-04-03 05:00:00 11.4 3 Sur 5 Sudoeste 0 975.1 -2.5 83
2019-04-03 04:00:00 11.6 0 Calma 7 Sudoeste 0 976 -2.3 79
2019-04-03 03:00:00 12 3 Sudoeste 8 Oeste 0 977 -1.5 78
2019-04-03 02:00:00 12.3 4 Oeste 6 Oeste 0 977.6 -1.1 78
2019-04-03 01:00:00 12.5 3 Oeste 6 Sudoeste 0 978.3 0 72
2019-04-03 00:00:00 12.6 3 Sur 11 Nordeste 0 978.5 1 70
2019-04-02 23:00:00 12.7 5 Nordeste 17 Nordeste 0 978.7 1.5 64
2019-04-02 22:00:00 13.8 5 Sur 15 Sur 0 978.3 1.6 72
2019-04-02 21:00:00 14.8 4 Sudeste 15 Sudeste 0 977.5 0.9 68
2019-04-02 20:00:00 17.1 6 Sudoeste 21 Oeste 0 977.2 0.4 54
2019-04-02 19:00:00 18.8 10 Sudoeste 26 Sudoeste 0 976.7 -0.6 50
2019-04-02 18:00:00 20 11 Sur 30 Sur 0 976.6 -1.7 42
2019-04-02 17:00:00 19.1 9 Sudeste 22 Sur 0 976.8 -2.4 46
2019-04-02 16:00:00 19.4 12 Sur 22 Sudoeste 0 977.3 -2.6 44
2019-04-02 15:00:00 19.2 7 Sur 15 Sur 0 978.3 -2.2 41
2019-04-02 14:00:00 17.6 5 Sur 11 Sudoeste 0 979.2 -1.5 43
2019-04-02 13:00:00 16.1 6 Sur 10 Sudoeste 0 979.9 -0.7 47
2019-04-02 12:00:00 14.1 5 Nordeste 9 Nordeste 0 980.5 -0.2 50
2019-04-02 11:00:00 10.9 3 Norte 9 Nordeste 0 980.7 0.2 59
2019-04-02 10:00:00 9.2 3 Nordeste 8 Nordeste 0 980.6 0.3 64
2019-04-02 09:00:00 6.9 6 Nordeste 9 Nordeste 0 980.7 0.4 72
2019-04-02 08:00:00 5.8 5 Nordeste 10 Nordeste 0 980.5 0 77
2019-04-02 07:00:00 6.2 4 Nordeste 8 Nordeste 0 980.3 -0.6 75
2019-04-02 06:00:00 6.4 3 Nordeste 6 Norte 0 980.3 -0.8 73
2019-04-02 05:00:00 6.2 3 Norte 9 Nordeste 0 980.5 -0.9 74
2019-04-02 04:00:00 6.9 6 Nordeste 10 Nordeste 0 980.9 -0.6 71
2019-04-02 03:00:00 7.7 4 Nordeste 7 Norte 0 981.1 -0.4 68
2019-04-02 02:00:00 8.6 4 Nordeste 9 Nordeste 0 981.4 -0.1 65
2019-04-02 01:00:00 9.4 4 Este 7 Este 0 981.5 0.3 62
2019-04-02 00:00:00 10 4 Oeste 9 Sur 0 981.5 0.8 62
2019-04-01 23:00:00 11.2 4 Sur 10 Sudoeste 0 981.5 1.7 56
2019-04-01 22:00:00 12.5 5 Sur 16 Sur 0 981.2 1.9 49
2019-04-01 21:00:00 13.7 8 Sur 20 Sur 0 980.7 1.6 45
2019-04-01 20:00:00 15.4 10 Sur 27 Sur 0 979.8 1 39
2019-04-01 19:00:00 17.1 14 Sur 32 Sudoeste 0 979.3 0.2 34
2019-04-01 18:00:00 18.4 17 Sur 37 Sudoeste 0 979.1 -0.5 33
2019-04-01 17:00:00 20 15 Sur 30 Sur 0 978.8 -1.6 31
2019-04-01 16:00:00 20.8 9 Sur 21 Sur 0 979.1 -1.7 25
2019-04-01 15:00:00 20.5 7 Sur 22 Sur 0 979.6 -1.7 27
2019-04-01 14:00:00 19.4 10 Sur 20 Sudeste 0 980.4 -0.9 26
2019-04-01 13:00:00 18 6 Sur 15 Sur 0 980.8 -0.3 31
2019-04-01 12:00:00 17 5 Sudoeste 13 Oeste 0 981.3 0.2 37
2019-04-01 11:00:00 12.9 4 Nordeste 8 Nordeste 0 981.3 0.8 59
2019-04-01 10:00:00 10.3 3 Nordeste 6 Oeste 0 981.1 0.8 64
2019-04-01 09:00:00 7.1 3 Oeste 5 Oeste 0 981.1 0.7 74
2019-04-01 08:00:00 7.1 2 Nordeste 7 Norte 0 980.5 0 76
2019-04-01 07:00:00 7.3 3 Nordeste 5 Nordeste 0 980.3 -0.3 75
2019-04-01 06:00:00 7.7 3 Norte 7 Norte 0 980.4 -0.4 68
2019-04-01 05:00:00 8.2 2 Nordeste 5 Oeste 0 980.5 -0.5 75
2019-04-01 04:00:00 8.7 0 Calma 9 Nordeste 0 980.6 -0.6 69
2019-04-01 03:00:00 9.4 5 Nordeste 9 Nordeste 0 980.8 -0.4 68
2019-04-01 02:00:00 9.8 0 Calma 5 Oeste 0 981 -0.4 65
2019-04-01 01:00:00 10.5 3 Oeste 5 Oeste 0 981.2 0 62
2019-04-01 00:00:00 11.3 2 Oeste 5 Este 0 981.2 0.2 61
2019-03-31 23:00:00 11.6 0 Calma 4 Oeste 0 981.4 0.7 53
2019-03-31 22:00:00 12.2 3 Oeste 14 Sudoeste 0 981.2 0.8 60
2019-03-31 21:00:00 12.8 9 Sur 18 Sudoeste 0 981 0.9 59
2019-03-31 20:00:00 14 10 Sur 23 Sudoeste 0 980.7 0.3 55
2019-03-31 19:00:00 15.4 14 Sur 28 Sudoeste 0 980.4 -0.7 53
2019-03-31 18:00:00 17.7 9 Sudoeste 17 Sudoeste 0 980.1 -2 43
2019-03-31 17:00:00 18.4 4 Noroeste 14 Este 0 980.4 -2.4 46
2019-03-31 16:00:00 17.3 5 Norte 13 Nordeste 0 981.1 -2.4 49
2019-03-31 15:00:00 16.1 5 Norte 10 Oeste 0 982.1 -1.5 53
2019-03-31 14:00:00 13.4 4 Noroeste 9 Sur 0 982.8 -1.5 62
2019-03-31 13:00:00 11.6 6 Sur 12 Sudoeste 0 983.5 -0.9 65
2019-03-31 12:00:00 8.6 3 Noroeste 6 Oeste 0 983.6 -0.8 73
2019-03-31 11:00:00 6.3 4 Sudoeste 8 Sudoeste 0 984.3 0.4 79
2019-03-31 10:00:00 4.8 2 Este 9 Este 0 984.4 0.2 84
2019-03-31 09:00:00 3.7 5 Nordeste 9 Nordeste 0 984.4 0.1 89
2019-03-31 08:00:00 2.5 3 Norte 5 Nordeste 0 983.9 -0.9 91
2019-03-31 07:00:00 2.5 3 Nordeste 6 Norte 0 984.2 -1 92
2019-03-31 06:00:00 3 3 Nordeste 6 Norte 0 984.3 -1.3 91
2019-03-31 05:00:00 3.7 4 Nordeste 6 Norte 0 984.8 -1.6 90
2019-03-31 03:00:00 5.4 3 Norte 10 Nordeste 0 985.6 -2 87
2019-03-31 01:00:00 6.4 6 Nordeste 11 Nordeste 0 986.4 -1.2 84
2019-03-31 00:00:00 7.8 7 Nordeste 12 Nordeste 0 987.1 0.2 79
2019-03-30 23:00:00 8.9 2 Nordeste 9 Sur 0 987.6 1.6 78
2019-03-30 22:00:00 9.9 6 Sur 17 Sur 0 987.6 2.1 77
2019-03-30 21:00:00 10.4 8 Sur 21 Sur 0 986.9 1.4 73
2019-03-30 20:00:00 11.2 13 Sur 24 Sur 0 986 0.4 67
2019-03-30 19:00:00 13.2 11 Sur 28 Sur 0 985.5 -0.6 57
2019-03-30 18:00:00 15.1 13 Sur 27 Sur 0 985.5 -1.4 48
2019-03-30 17:00:00 16.5 12 Sur 27 Sur 0 985.6 -1.9 43
2019-03-30 16:00:00 16.9 12 Sur 28 Sudoeste 0 986.1 -2.1 40
2019-03-30 15:00:00 17 13 Sur 30 Sur 0 986.9 -2.3 36
2019-03-30 14:00:00 17.2 10 Sudoeste 27 Sudoeste 0 987.5 -2.5 36
2019-03-30 13:00:00 16.2 11 Sur 23 Sur 0 988.2 -2.3 40
2019-03-30 12:00:00 14.4 8 Sudoeste 16 Sudoeste 0 989.2 -1.6 47
2019-03-30 11:00:00 11.9 3 Este 6 Nordeste 0 990 -0.9 54
2019-03-30 10:00:00 8.7 3 Sudoeste 9 Nordeste 0 990.5 -0.2 58
2019-03-30 09:00:00 5 4 Nordeste 6 Nordeste 0 990.8 0 70
2019-03-30 08:00:00 1.7 4 Nordeste 7 Norte 0 990.9 0 81
2019-03-30 07:00:00 0.2 4 Norte 6 Norte 0 990.7 -0.2 87
2019-03-30 06:00:00 0.7 3 Norte 8 Nordeste 0 990.8 -0.2 84
2019-03-30 05:00:00 1.4 3 Nordeste 6 Norte 0 990.9 -0.5 82
2019-03-30 04:00:00 1.8 3 Norte 9 Nordeste 0 990.9 -0.8 80
2019-03-30 03:00:00 2.9 5 Nordeste 7 Nordeste 0 991 -0.7 75
2019-03-30 02:00:00 3.6 4 Nordeste 6 Norte 0 991.4 -0.5 76
2019-03-30 01:00:00 4.7 6 Nordeste 9 Nordeste 0 991.7 -0.3 72
2019-03-30 00:00:00 5.9 3 Norte 8 Nordeste 0 991.7 -0.1 68
2019-03-29 23:00:00 7.7 6 Nordeste 8 Nordeste 0 991.9 0.7 65
2019-03-29 22:00:00 9.4 0 Calma 13 Sudeste 0 992 1.1 62
2019-03-29 21:00:00 10.8 8 Sur 19 Sudeste 0 991.8 1.2 58
2019-03-29 20:00:00 11.9 10 Sur 24 Sur 0 991.2 0.5 51
2019-03-29 19:00:00 13.5 10 Sur 25 Sudeste 0 990.9 0.1 41
2019-03-29 18:00:00 15.4 10 Sur 28 Sudoeste 0 990.6 -0.8 35
2019-03-29 17:00:00 16.3 14 Sur 30 Sudoeste 0 990.7 -1.3 31
2019-03-29 16:00:00 17.2 13 Sur 28 Sudoeste 0 990.8 -1.7 30
2019-03-29 15:00:00 17.5 13 Sur 30 Sur 0 991.4 -1.6 32
2019-03-29 14:00:00 17.6 12 Sudoeste 27 Sudoeste 0 992 -1.7 32
2019-03-29 13:00:00 16.5 13 Sur 25 Sur 0 992.5 -1.6 34
2019-03-29 12:00:00 16.4 6 Sur 15 Sur 0 993 -1 39
2019-03-29 11:00:00 12.6 3 Norte 9 Norte 0 993.7 -0.4 49
2019-03-29 10:00:00 9.6 2 Sur 7 Sudoeste 0 994.1 0.2 58
2019-03-29 09:00:00 6.6 2 Nordeste 8 Nordeste 0 994 0.5 68
2019-03-29 08:00:00 2.6 5 Norte 8 Norte 0 994.1 0.7 81
2019-03-29 07:00:00 2.2 6 Nordeste 9 Nordeste 0 993.9 0.7 85
2019-03-29 06:00:00 2.5 3 Nordeste 7 Nordeste 0 993.5 0.1 83
2019-03-29 05:00:00 2.9 3 Nordeste 8 Norte 0 993.4 -0.2 84
2019-03-29 04:00:00 3.9 4 Nordeste 10 Nordeste 0 993.2 -0.4 82
2019-03-29 03:00:00 3.9 5 Norte 8 Norte 0 993.4 -0.4 82
2019-03-29 02:00:00 4.7 0 Calma 8 Norte 0 993.6 -0.2 80
2019-03-29 01:00:00 5.7 5 Nordeste 8 Norte 0 993.6 -0.2 77
2019-03-29 00:00:00 7 7 Nordeste 11 Nordeste 0 993.8 0.7 72
2019-03-28 23:00:00 7.7 0 Calma 9 Oeste 0 993.8 1.6 66
2019-03-28 22:00:00 9.8 4 Sudoeste 15 Sudeste 0 993.8 2.3 61
2019-03-28 21:00:00 11.1 6 Sudeste 21 Sur 0 993.1 2.2 55
2019-03-28 20:00:00 11.8 9 Sur 19 Sur 0 992.2 1.5 54
2019-03-28 19:00:00 13.5 13 Sur 32 Sur 0 991.5 1 46
2019-03-28 18:00:00 15.2 15 Sur 34 Sur 0 990.9 0.3 38
2019-03-28 17:00:00 16.7 16 Sur 34 Sur 0 990.7 -0.7 32
2019-03-28 16:00:00 18.2 18 Sur 36 Sur 0 990.5 -1.6 26
2019-03-28 15:00:00 19.4 8 Sur 20 Sudoeste 0 990.6 -2.4 23
2019-03-28 14:00:00 18.8 7 Sur 18 Este 0 991.4 -2.2 26
2019-03-28 13:00:00 16.9 4 Este 15 Sudeste 0 992.1 -2 30
2019-03-28 12:00:00 15.3 5 Sudeste 13 Sur 0 993 -1.3 33
2019-03-28 11:00:00 11.8 4 Nordeste 12 Nordeste 0 993.6 -0.5 54
2019-03-28 10:00:00 8.5 4 Norte 9 Nordeste 0 994.1 0.4 61
2019-03-28 09:00:00 5.5 4 Norte 7 Norte 0 994.3 0.9 70
2019-03-28 08:00:00 2 3 Oeste 5 Nordeste 0 994.1 0.8 87
2019-03-28 07:00:00 0.9 2 Norte 6 Nordeste 0 993.7 0.7 87
2019-03-28 06:00:00 1.7 4 Nordeste 6 Nordeste 0 993.4 0.4 90
2019-03-28 05:00:00 2 0 Calma 5 Norte 0 993.3 0.4 86
2019-03-28 04:00:00 2.8 4 Nordeste 7 Este 0 993 0.1 81
2019-03-28 03:00:00 3.8 2 Noroeste 7 Nordeste 0 993 0.5 82
2019-03-28 02:00:00 4.2 3 Nordeste 8 Norte 0 992.9 0.9 79
2019-03-28 01:00:00 5 5 Nordeste 12 Nordeste 0 992.9 1 74
2019-03-28 00:00:00 6.5 5 Nordeste 11 Nordeste 0 992.5 1.4 73
2019-03-27 23:00:00 7.9 4 Norte 6 Oeste 0 992 1.8 73
2019-03-27 22:00:00 9.2 2 Sur 18 Sudoeste 0 991.9 2.6 66
2019-03-27 21:00:00 10.8 9 Sur 20 Sur 0 991.1 2.7 60
2019-03-27 20:00:00 11.7 10 Sur 24 Sudeste 0 990.2 2.2 58
2019-03-27 19:00:00 13.3 10 Sur 28 Sur 0 989.3 1.5 51
2019-03-27 18:00:00 15.1 16 Sur 35 Sudoeste 0 988.4 0.4 41
2019-03-27 17:00:00 17.4 17 Sur 32 Sur 0 988 -0.4 33
2019-03-27 16:00:00 19.9 7 Sudoeste 21 Noroeste 0 987.8 -1.1 20
2019-03-27 15:00:00 19.1 5 Este 21 Oeste 0 988 -1.3 23
2019-03-27 14:00:00 18.3 5 Nordeste 15 Nordeste 0 988.4 -1.4 24
2019-03-27 13:00:00 17.6 5 Oeste 16 Noroeste 0 988.9 -1.4 30
2019-03-27 12:00:00 15 3 Oeste 9 Sur 0 989.3 -1.5 38
2019-03-27 11:00:00 11.6 4 Nordeste 11 Nordeste 0 989.8 -1.1 45
2019-03-27 10:00:00 7.4 5 Nordeste 10 Norte 0 990.3 -0.2 53
2019-03-27 09:00:00 4.3 4 Nordeste 9 Nordeste 0 990.8 0.5 63
2019-03-27 08:00:00 0.2 2 Norte 8 Norte 0 990.9 0.9 81
2019-03-27 07:00:00 -0.4 5 Nordeste 8 Norte 0 990.5 0.6 82
2019-03-27 06:00:00 0.4 3 Norte 6 Norte 0 990.3 0.5 81
2019-03-27 05:00:00 0.6 5 Nordeste 8 Nordeste 0 990 0.2 80
2019-03-27 04:00:00 1.4 5 Nordeste 11 Nordeste 0 989.9 0.4 76
2019-03-27 03:00:00 2 5 Nordeste 10 Nordeste 0 989.8 0.5 77
2019-03-27 02:00:00 3.2 6 Nordeste 9 Nordeste 0 989.8 0.9 73
2019-03-27 01:00:00 4.3 6 Nordeste 8 Nordeste 0 989.5 1.1 71
2019-03-27 00:00:00 6 4 Norte 10 Norte 0 989.3 1.3 64